createdAt,value
2022-08-04T00:00:08.225Z,22.7
2022-08-04T00:05:08.475Z,22.7
2022-08-04T00:10:08.150Z,22.6
2022-08-04T00:15:07.866Z,22.6
2022-08-04T00:20:08.545Z,22.5
2022-08-04T00:25:08.269Z,22.5
2022-08-04T00:30:08.016Z,22.3
2022-08-04T00:35:07.733Z,22.3
2022-08-04T00:40:08.410Z,22.3
2022-08-04T00:45:08.125Z,22.3
2022-08-04T00:50:07.823Z,22.2
2022-08-04T00:55:09.188Z,22.2
2022-08-04T01:00:08.014Z,22.1
2022-08-04T01:05:07.724Z,22.1
2022-08-04T01:10:08.411Z,22.1
2022-08-04T01:15:08.133Z,22.1
2022-08-04T01:20:07.838Z,22.1
2022-08-04T01:25:08.516Z,22.1
2022-08-04T01:30:08.195Z,22.0
2022-08-04T01:35:07.767Z,22.0
2022-08-04T01:40:08.485Z,22.0
2022-08-04T01:45:08.187Z,22.0
2022-08-04T01:50:07.905Z,22.0
2022-08-04T01:55:08.595Z,22.0
2022-08-04T02:00:08.251Z,22.1
2022-08-04T02:05:07.971Z,22.1
2022-08-04T02:10:07.669Z,22.0
2022-08-04T02:15:08.374Z,22.0
2022-08-04T02:20:08.102Z,22.0
2022-08-04T02:25:07.797Z,22.0
2022-08-04T02:30:08.507Z,22.0
2022-08-04T02:35:08.585Z,22.0
2022-08-04T02:40:08.285Z,22.1
2022-08-04T02:45:07.985Z,22.1
2022-08-04T02:50:07.684Z,22.1
2022-08-04T02:55:08.349Z,22.1
2022-08-04T03:00:12.319Z,22.0
2022-08-04T03:05:08.007Z,22.0
2022-08-04T03:10:07.713Z,22.0
2022-08-04T03:15:08.378Z,22.0
2022-08-04T03:20:08.083Z,21.8
2022-08-04T03:25:07.762Z,21.8
2022-08-04T03:30:08.464Z,21.8
2022-08-04T03:35:08.184Z,21.8
2022-08-04T03:40:08.959Z,21.8
2022-08-04T03:45:20.516Z,21.8
2022-08-04T03:50:08.525Z,21.8
2022-08-04T03:55:08.222Z,21.8
2022-08-04T04:00:07.927Z,21.8
2022-08-04T04:05:02.904Z,21.7
2022-08-04T04:10:07.017Z,21.7
2022-08-04T04:15:02.299Z,21.8
2022-08-04T04:20:02.122Z,21.8
2022-08-04T04:25:03.377Z,21.8
2022-08-04T04:30:02.196Z,21.8
2022-08-04T04:35:02.020Z,22.0
2022-08-04T04:40:03.585Z,22.0
2022-08-04T04:45:01.904Z,22.0
2022-08-04T04:50:11.023Z,22.2
2022-08-04T04:55:01.957Z,22.2
2022-08-04T05:00:01.866Z,22.3
2022-08-04T05:05:02.746Z,22.5
2022-08-04T05:10:02.679Z,22.5
2022-08-04T05:15:02.611Z,22.6
2022-08-04T05:20:02.513Z,22.6
2022-08-04T05:25:07.717Z,22.5
2022-08-04T05:30:02.590Z,22.7
2022-08-04T05:35:02.441Z,22.7
2022-08-04T05:40:02.264Z,22.7
2022-08-04T05:45:02.181Z,23.1
2022-08-04T05:50:03.155Z,23.1
2022-08-04T05:55:02.096Z,23.2
2022-08-04T06:00:10.506Z,23.2
2022-08-04T06:05:02.521Z,23.6
2022-08-04T06:10:02.367Z,23.6
2022-08-04T06:15:02.202Z,24.0
2022-08-04T06:20:19.519Z,24.0
2022-08-04T06:25:02.267Z,24.3
2022-08-04T06:30:02.094Z,24.3
2022-08-04T06:35:01.903Z,25.1
2022-08-04T06:40:02.666Z,25.5
2022-08-04T06:45:02.324Z,25.5
2022-08-04T06:51:26.465Z,26.2
2022-08-04T06:55:02.037Z,26.2
2022-08-04T07:00:01.882Z,26.2
2022-08-04T07:05:07.325Z,26.2
2022-08-04T07:10:04.001Z,26.2
2022-08-04T07:15:01.768Z,26.2
2022-08-04T07:20:02.633Z,26.6
2022-08-04T07:25:02.439Z,26.6
2022-08-04T07:30:02.666Z,26.6
2022-08-04T07:35:02.440Z,26.6
2022-08-04T07:40:02.432Z,26.8
2022-08-04T07:45:02.366Z,26.8
2022-08-04T07:50:02.533Z,27.2
2022-08-04T07:55:02.347Z,27.2
2022-08-04T08:00:02.201Z,27.7
2022-08-04T08:05:02.028Z,27.7
2022-08-04T08:10:02.062Z,28.5
2022-08-04T08:15:01.954Z,28.5
2022-08-04T08:20:01.784Z,29.2
2022-08-04T08:25:02.590Z,29.2
2022-08-04T08:30:02.356Z,30.2
2022-08-04T08:35:02.194Z,30.5
2022-08-04T08:40:02.028Z,31.6
2022-08-04T08:45:01.904Z,31.6
2022-08-04T08:50:12.791Z,31.7
2022-08-04T08:55:02.521Z,31.7
2022-08-04T09:00:02.384Z,32.4
2022-08-04T09:05:02.201Z,32.4
2022-08-04T09:10:02.050Z,32.4
2022-08-04T09:15:01.941Z,32.4
2022-08-04T09:20:01.833Z,33.2
2022-08-04T09:25:02.677Z,33.2
2022-08-04T09:30:02.493Z,32.4
2022-08-04T09:35:03.193Z,32.4
2022-08-04T09:40:14.675Z,34.0
2022-08-04T09:45:06.117Z,34.0
2022-08-04T09:50:02.289Z,33.9
2022-08-04T09:55:02.087Z,33.9
2022-08-04T10:00:02.961Z,33.7
2022-08-04T10:05:04.233Z,33.7
2022-08-04T10:10:12.092Z,33.7
2022-08-04T10:15:01.841Z,33.7
2022-08-04T10:20:02.703Z,33.7
2022-08-04T10:25:02.699Z,33.7
2022-08-04T10:30:02.552Z,33.7
2022-08-04T10:35:12.554Z,33.7
2022-08-04T10:40:02.531Z,32.7
2022-08-04T10:45:02.552Z,32.7
2022-08-04T10:50:02.478Z,33.2
2022-08-04T10:55:02.412Z,33.2
2022-08-04T11:00:03.532Z,32.5
2022-08-04T11:05:01.748Z,32.5
2022-08-04T11:10:02.517Z,32.0
2022-08-04T11:15:02.371Z,32.0
2022-08-04T11:20:24.825Z,30.5
2022-08-04T11:25:02.651Z,29.2
2022-08-04T11:30:02.462Z,28.2
2022-08-04T11:35:02.255Z,27.5
2022-08-04T11:40:02.041Z,26.6
2022-08-04T11:45:01.866Z,26.1
2022-08-04T11:50:02.674Z,25.6
2022-08-04T11:55:02.538Z,25.8
2022-08-04T12:00:22.104Z,27.3
2022-08-04T12:05:01.902Z,29.2
2022-08-04T12:10:02.827Z,29.2
2022-08-04T12:15:02.631Z,28.6
2022-08-04T12:20:03.895Z,28.2
2022-08-04T12:25:01.832Z,28.2
2022-08-04T12:30:58.924Z,26.7
2022-08-04T12:35:02.641Z,26.7
2022-08-04T12:40:28.562Z,26.2
2022-08-04T12:45:02.360Z,26.2
2022-08-04T12:50:03.065Z,27.7
2022-08-04T12:55:02.145Z,27.7
2022-08-04T13:00:02.374Z,28.5
2022-08-04T13:05:02.264Z,28.5
2022-08-04T13:10:02.285Z,28.5
2022-08-04T13:15:08.876Z,28.5
2022-08-04T13:20:02.082Z,29.2
2022-08-04T13:26:41.574Z,29.2
2022-08-04T13:30:03.840Z,29.2
2022-08-04T13:35:02.099Z,29.2
2022-08-04T13:40:02.245Z,30.7
2022-08-04T13:45:02.137Z,30.7
2022-08-04T13:50:10.665Z,29.6
2022-08-04T13:55:02.419Z,29.6
2022-08-04T14:00:02.505Z,29.6
2022-08-04T14:05:02.498Z,29.6
2022-08-04T14:10:04.313Z,27.8
2022-08-04T14:15:02.667Z,27.8
2022-08-04T14:20:02.671Z,27.7
2022-08-04T14:25:02.810Z,27.7
2022-08-04T14:30:02.979Z,28.1
2022-08-04T14:35:06.210Z,29.2
2022-08-04T14:40:19.144Z,29.0
2022-08-04T14:45:02.731Z,29.0
2022-08-04T14:50:02.519Z,27.5
2022-08-04T14:55:02.982Z,27.5
2022-08-04T15:00:04.972Z,28.0
2022-08-04T15:05:55.136Z,28.3
2022-08-04T15:10:01.993Z,27.8
2022-08-04T15:15:26.782Z,28.2
2022-08-04T15:20:02.559Z,27.8
2022-08-04T15:25:02.386Z,27.7
2022-08-04T15:30:02.742Z,27.7
2022-08-04T15:35:02.871Z,27.8
2022-08-04T15:40:03.011Z,27.8
2022-08-04T15:45:12.002Z,27.7
2022-08-04T15:50:01.964Z,27.7
2022-08-04T15:55:02.050Z,27.3
2022-08-04T16:00:02.815Z,30.2
2022-08-04T16:05:02.827Z,30.2
2022-08-04T16:10:02.838Z,31.1
2022-08-04T16:15:02.714Z,31.1
2022-08-04T16:20:02.578Z,29.1
2022-08-04T16:25:02.482Z,28.5
2022-08-04T16:30:02.343Z,30.5
2022-08-04T16:35:02.183Z,31.2
2022-08-04T16:40:02.068Z,29.5
2022-08-04T16:45:07.615Z,29.5
2022-08-04T16:50:02.411Z,29.2
2022-08-04T16:55:02.168Z,29.2
2022-08-04T17:00:01.928Z,29.1
2022-08-04T17:05:07.569Z,29.1
2022-08-04T17:10:02.690Z,30.2
2022-08-04T17:15:02.519Z,30.2
2022-08-04T17:20:02.392Z,29.7
2022-08-04T17:25:02.185Z,29.7
2022-08-04T17:30:01.885Z,30.2
2022-08-04T17:35:03.972Z,30.2
2022-08-04T17:40:01.931Z,29.0
2022-08-04T17:45:15.010Z,29.0
2022-08-04T17:50:02.869Z,29.2
2022-08-04T17:55:03.088Z,29.2
2022-08-04T18:00:02.006Z,28.2
2022-08-04T18:05:07.698Z,28.2
2022-08-04T18:10:30.994Z,26.8
2022-08-04T18:15:04.817Z,26.8
2022-08-04T18:20:02.618Z,26.2
2022-08-04T18:25:02.546Z,26.2
2022-08-04T18:30:33.486Z,26.0
2022-08-04T18:40:17.383Z,25.3
2022-08-04T18:45:02.167Z,25.3
2022-08-04T18:50:59.082Z,24.6
2022-08-04T18:55:02.797Z,24.6
2022-08-04T19:00:02.920Z,24.0
2022-08-04T19:05:02.760Z,24.0
2022-08-04T19:10:02.581Z,23.7
2022-08-04T19:15:08.999Z,23.7
2022-08-04T19:20:02.202Z,23.2
2022-08-04T19:25:02.040Z,23.2
2022-08-04T19:30:02.089Z,23.1
2022-08-04T19:35:02.119Z,23.1
2022-08-04T19:40:02.051Z,23.0
2022-08-04T19:45:02.484Z,22.7
2022-08-04T19:50:04.353Z,22.7
2022-08-04T19:55:09.848Z,22.6
2022-08-04T20:00:01.968Z,22.6
2022-08-04T20:05:01.862Z,22.3
2022-08-04T20:10:04.528Z,22.3
2022-08-04T20:15:02.711Z,22.1
2022-08-04T20:20:02.143Z,22.1
2022-08-04T20:25:17.958Z,22.1
2022-08-04T20:30:04.264Z,22.1
2022-08-04T20:35:16.644Z,22.1
2022-08-04T20:40:07.750Z,22.1
2022-08-04T20:45:08.435Z,22.1
2022-08-04T20:50:08.938Z,22.1
2022-08-04T20:55:08.394Z,22.1
2022-08-04T21:00:08.122Z,21.8
2022-08-04T21:05:07.794Z,21.8
2022-08-04T21:10:08.249Z,21.8
2022-08-04T21:15:14.446Z,21.8
2022-08-04T21:20:07.823Z,21.6
2022-08-04T21:25:15.846Z,21.6
2022-08-04T21:30:20.201Z,21.7
2022-08-04T21:35:10.400Z,21.7
2022-08-04T21:40:14.533Z,21.7
2022-08-04T21:45:08.564Z,19.0
2022-08-04T21:50:08.330Z,17.5
2022-08-04T21:55:08.018Z,17.7
2022-08-04T22:00:10.891Z,17.5
2022-08-04T22:05:08.002Z,17.5
2022-08-04T22:10:08.330Z,17.3
2022-08-04T22:16:02.653Z,17.7
2022-08-04T22:20:08.017Z,17.7
2022-08-04T22:30:16.749Z,17.7
2022-08-04T22:35:36.493Z,17.7
2022-08-04T22:40:08.402Z,17.7
2022-08-04T22:45:08.156Z,17.5
2022-08-04T22:50:26.807Z,17.5
2022-08-04T22:55:08.110Z,17.2
2022-08-04T23:00:59.328Z,17.2
2022-08-04T23:05:08.575Z,17.5
2022-08-04T23:10:08.607Z,17.3
2022-08-04T23:15:07.857Z,17.5
2022-08-04T23:20:11.751Z,17.5
2022-08-04T23:25:15.969Z,17.5
2022-08-04T23:30:08.600Z,17.2
2022-08-04T23:35:08.263Z,17.2
2022-08-04T23:40:30.512Z,17.3
2022-08-04T23:45:08.513Z,17.3
2022-08-04T23:50:07.883Z,17.2
2022-08-04T23:55:08.566Z,17.2
